sensor_id;sensor_type;location;lat;lon;timestamp;P1;durP1;ratioP1;P2;durP2;ratioP2
15788;SDS011;59075;50.670;6.474;2022-11-11T06:02:03;671.03;;;617.73;;
15788;SDS011;59075;50.670;6.474;2022-11-11T06:04:30;663.23;;;610.03;;
15788;SDS011;59075;50.670;6.474;2022-11-11T06:06:58;671.83;;;618.73;;
15788;SDS011;59075;50.670;6.474;2022-11-11T06:09:25;667.87;;;614.67;;
15788;SDS011;59075;50.670;6.474;2022-11-11T06:11:52;663.70;;;610.63;;
15788;SDS011;59075;50.670;6.474;2022-11-11T06:14:18;662.57;;;609.43;;
15788;SDS011;59075;50.670;6.474;2022-11-11T06:16:46;657.60;;;604.53;;
15788;SDS011;59075;50.670;6.474;2022-11-11T06:19:14;665.77;;;612.57;;
15788;SDS011;59075;50.670;6.474;2022-11-11T06:21:40;670.97;;;617.80;;
15788;SDS011;59075;50.670;6.474;2022-11-11T06:24:22;659.03;;;606.13;;
15788;SDS011;59075;50.670;6.474;2022-11-11T06:26:49;663.80;;;610.77;;
15788;SDS011;59075;50.670;6.474;2022-11-11T06:29:16;661.00;;;608.07;;
15788;SDS011;59075;50.670;6.474;2022-11-11T06:31:42;662.50;;;609.50;;
15788;SDS011;59075;50.670;6.474;2022-11-11T06:34:10;657.27;;;604.40;;
15788;SDS011;59075;50.670;6.474;2022-11-11T06:36:38;675.13;;;621.67;;
15788;SDS011;59075;50.670;6.474;2022-11-11T06:39:05;673.27;;;619.83;;
15788;SDS011;59075;50.670;6.474;2022-11-11T06:41:31;656.33;;;603.47;;
15788;SDS011;59075;50.670;6.474;2022-11-11T06:43:58;666.20;;;613.03;;
15788;SDS011;59075;50.670;6.474;2022-11-11T06:46:25;681.17;;;627.57;;
15788;SDS011;59075;50.670;6.474;2022-11-11T06:48:52;674.03;;;620.57;;
15788;SDS011;59075;50.670;6.474;2022-11-11T06:51:19;679.63;;;626.20;;
15788;SDS011;59075;50.670;6.474;2022-11-11T06:53:47;670.80;;;617.23;;
15788;SDS011;59075;50.670;6.474;2022-11-11T06:56:14;647.60;;;595.10;;
15788;SDS011;59075;50.670;6.474;2022-11-11T06:58:41;675.90;;;622.37;;
15788;SDS011;59075;50.670;6.474;2022-11-11T07:01:08;666.47;;;613.20;;
15788;SDS011;59075;50.670;6.474;2022-11-11T07:03:35;668.40;;;615.27;;
15788;SDS011;59075;50.670;6.474;2022-11-11T07:06:02;673.27;;;619.70;;
15788;SDS011;59075;50.670;6.474;2022-11-11T07:08:30;666.20;;;613.07;;
15788;SDS011;59075;50.670;6.474;2022-11-11T07:10:58;666.37;;;613.30;;
15788;SDS011;59075;50.670;6.474;2022-11-11T07:13:26;672.70;;;619.30;;
15788;SDS011;59075;50.670;6.474;2022-11-11T07:15:52;667.43;;;613.47;;
15788;SDS011;59075;50.670;6.474;2022-11-11T07:18:19;660.20;;;607.30;;
15788;SDS011;59075;50.670;6.474;2022-11-11T07:20:46;653.73;;;601.13;;
15788;SDS011;59075;50.670;6.474;2022-11-11T07:23:13;671.57;;;617.97;;
15788;SDS011;59075;50.670;6.474;2022-11-11T07:25:42;732.72;;;676.20;;
15788;SDS011;59075;50.670;6.474;2022-11-11T07:28:10;661.40;;;608.50;;
15788;SDS011;59075;50.670;6.474;2022-11-11T07:30:36;676.07;;;622.70;;
15788;SDS011;59075;50.670;6.474;2022-11-11T07:33:03;678.57;;;624.97;;
15788;SDS011;59075;50.670;6.474;2022-11-11T07:35:30;671.20;;;617.87;;
15788;SDS011;59075;50.670;6.474;2022-11-11T07:37:56;669.73;;;616.60;;
15788;SDS011;59075;50.670;6.474;2022-11-11T07:40:23;654.90;;;602.17;;
15788;SDS011;59075;50.670;6.474;2022-11-11T07:42:50;654.90;;;602.17;;
15788;SDS011;59075;50.670;6.474;2022-11-11T07:45:18;666.97;;;613.90;;
15788;SDS011;59075;50.670;6.474;2022-11-11T07:47:45;657.93;;;605.00;;
15788;SDS011;59075;50.670;6.474;2022-11-11T07:50:11;657.40;;;604.77;;
15788;SDS011;59075;50.670;6.474;2022-11-11T07:52:39;673.00;;;619.67;;
15788;SDS011;59075;50.670;6.474;2022-11-11T07:55:06;671.67;;;618.43;;
15788;SDS011;59075;50.670;6.474;2022-11-11T07:57:33;681.27;;;627.53;;
15788;SDS011;59075;50.670;6.474;2022-11-11T08:00:00;677.70;;;624.37;;
15788;SDS011;59075;50.670;6.474;2022-11-11T08:02:29;671.70;;;618.57;;
15788;SDS011;59075;50.670;6.474;2022-11-11T08:04:55;657.70;;;604.93;;
15788;SDS011;59075;50.670;6.474;2022-11-11T08:07:22;670.13;;;617.00;;
15788;SDS011;59075;50.670;6.474;2022-11-11T08:09:49;668.33;;;615.23;;
15788;SDS011;59075;50.670;6.474;2022-11-11T08:12:16;671.30;;;618.17;;
15788;SDS011;59075;50.670;6.474;2022-11-11T08:15:01;676.43;;;622.83;;
15788;SDS011;59075;50.670;6.474;2022-11-11T08:17:29;682.37;;;628.80;;
15788;SDS011;59075;50.670;6.474;2022-11-11T08:19:56;665.10;;;612.10;;
15788;SDS011;59075;50.670;6.474;2022-11-11T08:22:23;661.03;;;608.20;;
15788;SDS011;59075;50.670;6.474;2022-11-11T08:24:49;674.03;;;620.47;;
15788;SDS011;59075;50.670;6.474;2022-11-11T08:27:16;673.00;;;619.60;;
15788;SDS011;59075;50.670;6.474;2022-11-11T08:29:43;663.73;;;610.57;;
15788;SDS011;59075;50.670;6.474;2022-11-11T08:32:09;676.70;;;623.20;;
15788;SDS011;59075;50.670;6.474;2022-11-11T08:34:37;664.77;;;611.80;;
15788;SDS011;59075;50.670;6.474;2022-11-11T08:37:04;661.07;;;608.17;;
15788;SDS011;59075;50.670;6.474;2022-11-11T08:39:31;674.87;;;621.67;;
15788;SDS011;59075;50.670;6.474;2022-11-11T08:41:57;670.90;;;617.77;;
15788;SDS011;59075;50.670;6.474;2022-11-11T08:44:24;677.27;;;624.13;;
15788;SDS011;59075;50.670;6.474;2022-11-11T08:46:51;659.87;;;607.07;;
15788;SDS011;59075;50.670;6.474;2022-11-11T08:49:18;668.37;;;615.20;;
15788;SDS011;59075;50.670;6.474;2022-11-11T08:51:46;675.67;;;622.33;;
15788;SDS011;59075;50.670;6.474;2022-11-11T08:54:12;682.53;;;628.77;;
15788;SDS011;59075;50.670;6.474;2022-11-11T08:56:39;684.93;;;631.20;;
15788;SDS011;59075;50.670;6.474;2022-11-11T08:59:06;691.43;;;636.77;;
15788;SDS011;59075;50.670;6.474;2022-11-11T09:01:33;672.10;;;618.83;;
15788;SDS011;59075;50.670;6.474;2022-11-11T09:04:00;682.73;;;629.07;;
15788;SDS011;59075;50.670;6.474;2022-11-11T09:06:28;688.40;;;634.50;;
15788;SDS011;59075;50.670;6.474;2022-11-11T09:08:56;677.80;;;624.23;;
15788;SDS011;59075;50.670;6.474;2022-11-11T09:11:23;667.40;;;614.30;;
15788;SDS011;59075;50.670;6.474;2022-11-11T09:13:49;676.47;;;623.03;;
15788;SDS011;59075;50.670;6.474;2022-11-11T09:16:16;679.80;;;626.37;;
15788;SDS011;59075;50.670;6.474;2022-11-11T09:18:43;689.03;;;634.87;;
15788;SDS011;59075;50.670;6.474;2022-11-11T09:21:11;680.77;;;626.77;;
15788;SDS011;59075;50.670;6.474;2022-11-11T09:23:38;699.37;;;645.40;;
15788;SDS011;59075;50.670;6.474;2022-11-11T09:26:06;681.47;;;627.90;;
15788;SDS011;59075;50.670;6.474;2022-11-11T09:28:32;692.67;;;638.57;;
15788;SDS011;59075;50.670;6.474;2022-11-11T09:31:00;677.90;;;624.43;;
15788;SDS011;59075;50.670;6.474;2022-11-11T09:33:27;655.37;;;602.67;;
15788;SDS011;59075;50.670;6.474;2022-11-11T09:35:56;682.43;;;628.33;;
15788;SDS011;59075;50.670;6.474;2022-11-11T09:38:23;669.03;;;615.83;;
15788;SDS011;59075;50.670;6.474;2022-11-11T09:40:51;679.60;;;625.93;;
15788;SDS011;59075;50.670;6.474;2022-11-11T09:43:27;678.63;;;624.87;;
15788;SDS011;59075;50.670;6.474;2022-11-11T09:46:09;671.87;;;618.57;;
15788;SDS011;59075;50.670;6.474;2022-11-11T09:48:49;675.07;;;621.47;;
15788;SDS011;59075;50.670;6.474;2022-11-11T09:51:25;669.10;;;615.70;;
15788;SDS011;59075;50.670;6.474;2022-11-11T09:53:56;682.20;;;628.60;;
15788;SDS011;59075;50.670;6.474;2022-11-11T09:56:27;673.37;;;620.07;;
15788;SDS011;59075;50.670;6.474;2022-11-11T09:58:58;685.27;;;631.47;;
15788;SDS011;59075;50.670;6.474;2022-11-11T10:01:31;668.73;;;615.47;;
15788;SDS011;59075;50.670;6.474;2022-11-11T10:04:07;679.30;;;625.57;;
15788;SDS011;59075;50.670;6.474;2022-11-11T10:06:43;669.00;;;615.63;;
15788;SDS011;59075;50.670;6.474;2022-11-11T10:09:14;684.87;;;631.20;;
15788;SDS011;59075;50.670;6.474;2022-11-11T10:11:47;689.70;;;635.93;;
15788;SDS011;59075;50.670;6.474;2022-11-11T10:14:21;691.13;;;637.37;;
15788;SDS011;59075;50.670;6.474;2022-11-11T10:16:50;691.43;;;637.47;;
15788;SDS011;59075;50.670;6.474;2022-11-11T10:19:27;683.80;;;629.97;;
15788;SDS011;59075;50.670;6.474;2022-11-11T10:21:57;688.73;;;634.90;;
15788;SDS011;59075;50.670;6.474;2022-11-11T10:24:27;685.83;;;632.33;;
15788;SDS011;59075;50.670;6.474;2022-11-11T10:26:57;683.77;;;630.17;;
15788;SDS011;59075;50.670;6.474;2022-11-11T10:29:29;682.43;;;628.80;;
15788;SDS011;59075;50.670;6.474;2022-11-11T10:32:02;684.00;;;630.57;;
15788;SDS011;59075;50.670;6.474;2022-11-11T10:34:34;693.83;;;639.83;;
15788;SDS011;59075;50.670;6.474;2022-11-11T10:37:02;694.77;;;640.67;;
15788;SDS011;59075;50.670;6.474;2022-11-11T10:39:47;683.10;;;629.57;;
15788;SDS011;59075;50.670;6.474;2022-11-11T10:42:21;673.07;;;619.57;;
15788;SDS011;59075;50.670;6.474;2022-11-11T10:44:49;693.13;;;639.30;;
15788;SDS011;59075;50.670;6.474;2022-11-11T10:47:23;692.33;;;638.27;;
15788;SDS011;59075;50.670;6.474;2022-11-11T10:50:01;688.87;;;635.00;;
15788;SDS011;59075;50.670;6.474;2022-11-11T10:52:34;690.23;;;636.40;;
15788;SDS011;59075;50.670;6.474;2022-11-11T10:55:04;683.10;;;629.53;;
15788;SDS011;59075;50.670;6.474;2022-11-11T10:57:36;689.13;;;635.40;;
15788;SDS011;59075;50.670;6.474;2022-11-11T11:00:12;685.67;;;632.00;;
15788;SDS011;59075;50.670;6.474;2022-11-11T11:02:41;697.37;;;643.43;;
15788;SDS011;59075;50.670;6.474;2022-11-11T11:05:15;695.27;;;641.37;;
15788;SDS011;59075;50.670;6.474;2022-11-11T11:07:47;684.57;;;630.87;;
15788;SDS011;59075;50.670;6.474;2022-11-11T11:10:17;687.37;;;633.80;;
15788;SDS011;59075;50.670;6.474;2022-11-11T11:12:50;696.43;;;642.83;;
15788;SDS011;59075;50.670;6.474;2022-11-11T11:15:22;699.07;;;644.97;;
15788;SDS011;59075;50.670;6.474;2022-11-11T11:17:52;698.87;;;644.70;;
15788;SDS011;59075;50.670;6.474;2022-11-11T11:20:22;694.73;;;640.87;;
15788;SDS011;59075;50.670;6.474;2022-11-11T11:22:50;686.00;;;632.30;;
15788;SDS011;59075;50.670;6.474;2022-11-11T11:25:20;698.37;;;644.00;;
15788;SDS011;59075;50.670;6.474;2022-11-11T11:27:48;692.23;;;638.07;;
15788;SDS011;59075;50.670;6.474;2022-11-11T11:30:17;696.13;;;642.17;;
15788;SDS011;59075;50.670;6.474;2022-11-11T11:32:56;705.10;;;650.87;;
15788;SDS011;59075;50.670;6.474;2022-11-11T11:35:28;708.20;;;653.70;;
15788;SDS011;59075;50.670;6.474;2022-11-11T11:37:56;699.70;;;645.47;;
15788;SDS011;59075;50.670;6.474;2022-11-11T11:40:22;706.87;;;652.80;;
15788;SDS011;59075;50.670;6.474;2022-11-11T11:42:49;714.53;;;660.07;;
15788;SDS011;59075;50.670;6.474;2022-11-11T11:45:20;713.97;;;659.30;;
15788;SDS011;59075;50.670;6.474;2022-11-11T11:47:50;705.67;;;651.50;;
15788;SDS011;59075;50.670;6.474;2022-11-11T11:50:28;705.87;;;651.77;;
15788;SDS011;59075;50.670;6.474;2022-11-11T11:52:58;711.00;;;656.43;;
15788;SDS011;59075;50.670;6.474;2022-11-11T11:55:41;707.70;;;652.57;;
15788;SDS011;59075;50.670;6.474;2022-11-11T11:58:16;695.87;;;641.80;;
15788;SDS011;59075;50.670;6.474;2022-11-11T12:00:50;698.33;;;644.27;;
15788;SDS011;59075;50.670;6.474;2022-11-11T12:03:34;718.93;;;664.07;;
15788;SDS011;59075;50.670;6.474;2022-11-11T12:06:06;702.40;;;648.20;;
15788;SDS011;59075;50.670;6.474;2022-11-11T12:08:41;698.03;;;644.03;;
15788;SDS011;59075;50.670;6.474;2022-11-11T12:11:22;698.67;;;644.57;;
15788;SDS011;59075;50.670;6.474;2022-11-11T12:14:00;703.63;;;649.23;;
15788;SDS011;59075;50.670;6.474;2022-11-11T12:16:32;707.00;;;652.93;;
15788;SDS011;59075;50.670;6.474;2022-11-11T12:19:09;715.50;;;660.97;;
15788;SDS011;59075;50.670;6.474;2022-11-11T12:21:55;702.43;;;648.17;;
15788;SDS011;59075;50.670;6.474;2022-11-11T12:24:30;701.37;;;647.37;;
15788;SDS011;59075;50.670;6.474;2022-11-11T12:27:27;705.03;;;650.90;;
15788;SDS011;59075;50.670;6.474;2022-11-11T12:30:01;699.00;;;644.90;;
15788;SDS011;59075;50.670;6.474;2022-11-11T12:35:33;702.63;;;648.37;;
15788;SDS011;59075;50.670;6.474;2022-11-11T12:38:22;708.13;;;653.93;;
15788;SDS011;59075;50.670;6.474;2022-11-11T12:41:04;703.10;;;648.70;;
15788;SDS011;59075;50.670;6.474;2022-11-11T12:43:35;718.60;;;663.70;;
15788;SDS011;59075;50.670;6.474;2022-11-11T12:46:11;701.77;;;647.73;;
15788;SDS011;59075;50.670;6.474;2022-11-11T12:48:47;705.77;;;651.47;;
15788;SDS011;59075;50.670;6.474;2022-11-11T12:51:25;711.57;;;657.13;;
15788;SDS011;59075;50.670;6.474;2022-11-11T12:54:04;727.70;;;672.63;;
15788;SDS011;59075;50.670;6.474;2022-11-11T12:56:43;706.50;;;651.60;;
15788;SDS011;59075;50.670;6.474;2022-11-11T12:59:18;720.73;;;665.90;;
15788;SDS011;59075;50.670;6.474;2022-11-11T13:01:49;719.87;;;665.00;;
15788;SDS011;59075;50.670;6.474;2022-11-11T13:04:29;718.50;;;663.80;;
15788;SDS011;59075;50.670;6.474;2022-11-11T13:07:23;713.00;;;658.17;;
15788;SDS011;59075;50.670;6.474;2022-11-11T13:10:00;716.33;;;661.67;;
15788;SDS011;59075;50.670;6.474;2022-11-11T13:12:39;711.90;;;657.50;;
15788;SDS011;59075;50.670;6.474;2022-11-11T13:15:13;716.93;;;662.40;;
15788;SDS011;59075;50.670;6.474;2022-11-11T13:17:41;723.70;;;668.63;;
15788;SDS011;59075;50.670;6.474;2022-11-11T13:20:12;717.63;;;662.80;;
15788;SDS011;59075;50.670;6.474;2022-11-11T13:22:47;717.33;;;662.43;;
15788;SDS011;59075;50.670;6.474;2022-11-11T13:25:17;723.90;;;668.70;;
15788;SDS011;59075;50.670;6.474;2022-11-11T13:27:48;721.60;;;667.00;;
15788;SDS011;59075;50.670;6.474;2022-11-11T13:30:35;726.57;;;671.53;;
15788;SDS011;59075;50.670;6.474;2022-11-11T13:33:10;707.50;;;653.37;;
15788;SDS011;59075;50.670;6.474;2022-11-11T13:35:41;737.80;;;681.67;;
15788;SDS011;59075;50.670;6.474;2022-11-11T13:38:11;716.43;;;661.77;;
15788;SDS011;59075;50.670;6.474;2022-11-11T13:40:50;714.40;;;659.60;;
15788;SDS011;59075;50.670;6.474;2022-11-11T13:43:20;722.97;;;668.10;;
15788;SDS011;59075;50.670;6.474;2022-11-11T13:45:50;720.50;;;665.03;;
15788;SDS011;59075;50.670;6.474;2022-11-11T13:48:23;717.93;;;663.20;;
15788;SDS011;59075;50.670;6.474;2022-11-11T13:51:05;713.33;;;658.73;;
15788;SDS011;59075;50.670;6.474;2022-11-11T13:54:05;718.10;;;663.27;;
15788;SDS011;59075;50.670;6.474;2022-11-11T13:56:51;712.57;;;658.23;;
15788;SDS011;59075;50.670;6.474;2022-11-11T13:59:26;732.30;;;676.77;;
15788;SDS011;59075;50.670;6.474;2022-11-11T14:07:46;711.40;;;656.00;;
15788;SDS011;59075;50.670;6.474;2022-11-11T14:16:06;705.67;;;650.67;;
15788;SDS011;59075;50.670;6.474;2022-11-11T14:18:36;724.90;;;669.43;;
15788;SDS011;59075;50.670;6.474;2022-11-11T14:21:06;703.90;;;649.27;;
15788;SDS011;59075;50.670;6.474;2022-11-11T14:23:34;715.97;;;660.83;;
15788;SDS011;59075;50.670;6.474;2022-11-11T14:26:22;717.93;;;662.57;;
15788;SDS011;59075;50.670;6.474;2022-11-11T14:28:52;727.90;;;672.37;;
15788;SDS011;59075;50.670;6.474;2022-11-11T14:31:31;715.77;;;660.47;;
15788;SDS011;59075;50.670;6.474;2022-11-11T14:34:05;726.37;;;670.87;;
15788;SDS011;59075;50.670;6.474;2022-11-11T14:36:41;724.27;;;669.07;;
15788;SDS011;59075;50.670;6.474;2022-11-11T14:39:14;738.13;;;681.27;;
15788;SDS011;59075;50.670;6.474;2022-11-11T14:41:45;723.40;;;668.03;;
15788;SDS011;59075;50.670;6.474;2022-11-11T14:47:26;718.40;;;663.10;;
15788;SDS011;59075;50.670;6.474;2022-11-11T14:49:57;726.00;;;670.57;;
15788;SDS011;59075;50.670;6.474;2022-11-11T14:52:25;713.57;;;658.73;;
15788;SDS011;59075;50.670;6.474;2022-11-11T14:55:00;715.23;;;660.73;;
15788;SDS011;59075;50.670;6.474;2022-11-11T14:57:31;729.77;;;673.90;;
15788;SDS011;59075;50.670;6.474;2022-11-11T15:00:04;724.73;;;669.67;;
15788;SDS011;59075;50.670;6.474;2022-11-11T15:02:39;721.60;;;666.47;;
15788;SDS011;59075;50.670;6.474;2022-11-11T15:05:10;722.23;;;667.10;;
15788;SDS011;59075;50.670;6.474;2022-11-11T15:08:02;727.17;;;671.93;;
15788;SDS011;59075;50.670;6.474;2022-11-11T15:10:42;716.43;;;661.50;;
15788;SDS011;59075;50.670;6.474;2022-11-11T15:13:33;715.53;;;660.60;;
15788;SDS011;59075;50.670;6.474;2022-11-11T15:16:09;720.07;;;664.83;;
15788;SDS011;59075;50.670;6.474;2022-11-11T15:18:53;719.53;;;664.57;;
15788;SDS011;59075;50.670;6.474;2022-11-11T15:21:40;718.83;;;663.90;;
15788;SDS011;59075;50.670;6.474;2022-11-11T15:24:16;713.80;;;659.23;;
15788;SDS011;59075;50.670;6.474;2022-11-11T15:26:54;725.17;;;670.23;;
15788;SDS011;59075;50.670;6.474;2022-11-11T15:29:27;718.40;;;663.27;;
15788;SDS011;59075;50.670;6.474;2022-11-11T15:32:13;719.90;;;664.90;;
15788;SDS011;59075;50.670;6.474;2022-11-11T15:34:48;720.13;;;664.80;;
15788;SDS011;59075;50.670;6.474;2022-11-11T15:37:16;709.93;;;655.47;;
15788;SDS011;59075;50.670;6.474;2022-11-11T15:39:48;716.97;;;662.37;;
15788;SDS011;59075;50.670;6.474;2022-11-11T15:42:17;724.10;;;669.10;;
15788;SDS011;59075;50.670;6.474;2022-11-11T15:44:52;729.57;;;674.47;;
15788;SDS011;59075;50.670;6.474;2022-11-11T15:47:21;708.47;;;654.13;;
15788;SDS011;59075;50.670;6.474;2022-11-11T15:49:48;715.20;;;660.60;;
15788;SDS011;59075;50.670;6.474;2022-11-11T15:52:25;707.30;;;653.10;;
15788;SDS011;59075;50.670;6.474;2022-11-11T15:54:54;716.07;;;661.57;;
15788;SDS011;59075;50.670;6.474;2022-11-11T15:57:24;722.50;;;667.77;;
15788;SDS011;59075;50.670;6.474;2022-11-11T15:59:53;709.47;;;654.93;;
15788;SDS011;59075;50.670;6.474;2022-11-11T16:02:22;717.77;;;662.43;;
15788;SDS011;59075;50.670;6.474;2022-11-11T16:04:51;707.27;;;652.97;;
15788;SDS011;59075;50.670;6.474;2022-11-11T16:07:23;710.30;;;655.93;;
15788;SDS011;59075;50.670;6.474;2022-11-11T16:09:52;711.90;;;657.23;;
15788;SDS011;59075;50.670;6.474;2022-11-11T16:12:24;717.70;;;663.10;;
15788;SDS011;59075;50.670;6.474;2022-11-11T16:14:57;713.40;;;658.87;;
15788;SDS011;59075;50.670;6.474;2022-11-11T16:17:32;705.23;;;651.07;;
15788;SDS011;59075;50.670;6.474;2022-11-11T16:20:03;703.63;;;649.47;;
15788;SDS011;59075;50.670;6.474;2022-11-11T16:22:36;716.40;;;662.00;;
15788;SDS011;59075;50.670;6.474;2022-11-11T16:25:10;711.70;;;657.07;;
15788;SDS011;59075;50.670;6.474;2022-11-11T16:27:41;708.53;;;654.00;;
15788;SDS011;59075;50.670;6.474;2022-11-11T16:30:13;722.20;;;667.50;;
15788;SDS011;59075;50.670;6.474;2022-11-11T16:32:44;718.30;;;663.53;;
15788;SDS011;59075;50.670;6.474;2022-11-11T16:35:22;715.13;;;660.23;;
15788;SDS011;59075;50.670;6.474;2022-11-11T16:37:50;711.40;;;657.00;;
15788;SDS011;59075;50.670;6.474;2022-11-11T16:40:25;707.87;;;653.47;;
15788;SDS011;59075;50.670;6.474;2022-11-11T16:43:11;707.73;;;653.40;;
15788;SDS011;59075;50.670;6.474;2022-11-11T16:45:47;716.50;;;661.23;;
15788;SDS011;59075;50.670;6.474;2022-11-11T16:51:12;691.33;;;637.53;;
15788;SDS011;59075;50.670;6.474;2022-11-11T16:54:05;691.73;;;637.97;;
15788;SDS011;59075;50.670;6.474;2022-11-11T16:56:34;693.73;;;639.87;;
15788;SDS011;59075;50.670;6.474;2022-11-11T16:59:03;704.30;;;649.87;;
15788;SDS011;59075;50.670;6.474;2022-11-11T17:01:39;713.60;;;658.93;;
15788;SDS011;59075;50.670;6.474;2022-11-11T17:04:08;697.07;;;643.17;;
15788;SDS011;59075;50.670;6.474;2022-11-11T17:06:47;694.13;;;640.13;;
15788;SDS011;59075;50.670;6.474;2022-11-11T17:09:26;697.47;;;643.47;;
15788;SDS011;59075;50.670;6.474;2022-11-11T17:11:59;682.50;;;628.87;;
15788;SDS011;59075;50.670;6.474;2022-11-11T17:14:26;689.73;;;635.80;;
15788;SDS011;59075;50.670;6.474;2022-11-11T17:16:54;693.80;;;640.10;;
15788;SDS011;59075;50.670;6.474;2022-11-11T17:19:21;686.93;;;633.33;;
15788;SDS011;59075;50.670;6.474;2022-11-11T17:21:49;699.07;;;645.10;;
15788;SDS011;59075;50.670;6.474;2022-11-11T17:24:15;681.50;;;628.07;;
15788;SDS011;59075;50.670;6.474;2022-11-11T17:26:43;689.80;;;636.07;;
15788;SDS011;59075;50.670;6.474;2022-11-11T17:29:09;687.97;;;634.10;;
15788;SDS011;59075;50.670;6.474;2022-11-11T17:31:37;687.80;;;633.90;;
15788;SDS011;59075;50.670;6.474;2022-11-11T17:34:04;687.37;;;633.37;;
15788;SDS011;59075;50.670;6.474;2022-11-11T17:36:32;695.10;;;641.23;;
15788;SDS011;59075;50.670;6.474;2022-11-11T17:39:00;698.57;;;644.53;;
15788;SDS011;59075;50.670;6.474;2022-11-11T17:41:26;696.37;;;642.20;;
15788;SDS011;59075;50.670;6.474;2022-11-11T17:43:53;695.00;;;640.77;;
15788;SDS011;59075;50.670;6.474;2022-11-11T17:46:20;693.63;;;639.67;;
15788;SDS011;59075;50.670;6.474;2022-11-11T17:48:46;692.80;;;638.93;;
15788;SDS011;59075;50.670;6.474;2022-11-11T17:51:13;703.00;;;648.80;;
15788;SDS011;59075;50.670;6.474;2022-11-11T17:53:40;707.87;;;653.50;;
15788;SDS011;59075;50.670;6.474;2022-11-11T17:56:08;704.47;;;649.90;;
15788;SDS011;59075;50.670;6.474;2022-11-11T17:58:35;703.77;;;649.53;;
15788;SDS011;59075;50.670;6.474;2022-11-11T18:01:06;717.17;;;662.33;;
15788;SDS011;59075;50.670;6.474;2022-11-11T18:03:33;709.50;;;655.00;;
15788;SDS011;59075;50.670;6.474;2022-11-11T18:06:00;706.90;;;652.53;;
15788;SDS011;59075;50.670;6.474;2022-11-11T18:08:27;712.33;;;657.83;;
15788;SDS011;59075;50.670;6.474;2022-11-11T18:10:57;706.57;;;652.23;;
15788;SDS011;59075;50.670;6.474;2022-11-11T18:13:25;714.90;;;660.20;;
15788;SDS011;59075;50.670;6.474;2022-11-11T18:15:52;720.13;;;664.77;;
15788;SDS011;59075;50.670;6.474;2022-11-11T18:18:20;705.27;;;651.07;;
15788;SDS011;59075;50.670;6.474;2022-11-11T18:20:47;719.67;;;664.90;;
15788;SDS011;59075;50.670;6.474;2022-11-11T18:23:14;715.43;;;660.70;;
15788;SDS011;59075;50.670;6.474;2022-11-11T18:25:41;740.43;;;684.30;;
15788;SDS011;59075;50.670;6.474;2022-11-11T18:28:08;713.17;;;658.70;;
15788;SDS011;59075;50.670;6.474;2022-11-11T18:30:36;725.50;;;670.53;;
15788;SDS011;59075;50.670;6.474;2022-11-11T18:33:02;717.50;;;662.87;;
15788;SDS011;59075;50.670;6.474;2022-11-11T18:35:29;727.07;;;672.00;;
15788;SDS011;59075;50.670;6.474;2022-11-11T18:37:56;722.70;;;667.83;;
15788;SDS011;59075;50.670;6.474;2022-11-11T18:40:23;730.67;;;675.47;;
15788;SDS011;59075;50.670;6.474;2022-11-11T18:42:51;737.07;;;681.80;;
15788;SDS011;59075;50.670;6.474;2022-11-11T18:45:18;720.73;;;665.93;;
15788;SDS011;59075;50.670;6.474;2022-11-11T18:47:47;735.80;;;680.40;;
15788;SDS011;59075;50.670;6.474;2022-11-11T18:50:13;720.23;;;665.40;;
15788;SDS011;59075;50.670;6.474;2022-11-11T18:52:40;734.53;;;679.23;;
15788;SDS011;59075;50.670;6.474;2022-11-11T18:55:07;738.77;;;683.30;;
15788;SDS011;59075;50.670;6.474;2022-11-11T18:57:34;728.53;;;673.50;;
15788;SDS011;59075;50.670;6.474;2022-11-11T19:00:00;732.67;;;677.57;;
15788;SDS011;59075;50.670;6.474;2022-11-11T19:02:27;735.87;;;680.70;;
15788;SDS011;59075;50.670;6.474;2022-11-11T19:04:56;733.53;;;678.40;;
15788;SDS011;59075;50.670;6.474;2022-11-11T19:07:22;727.27;;;672.33;;
15788;SDS011;59075;50.670;6.474;2022-11-11T19:09:49;731.97;;;676.80;;
15788;SDS011;59075;50.670;6.474;2022-11-11T19:12:15;740.23;;;684.77;;
15788;SDS011;59075;50.670;6.474;2022-11-11T19:14:42;737.43;;;682.00;;
15788;SDS011;59075;50.670;6.474;2022-11-11T19:17:09;741.30;;;685.90;;
15788;SDS011;59075;50.670;6.474;2022-11-11T19:19:36;730.33;;;675.47;;
15788;SDS011;59075;50.670;6.474;2022-11-11T19:22:04;728.53;;;673.30;;
15788;SDS011;59075;50.670;6.474;2022-11-11T19:24:31;741.10;;;685.77;;
15788;SDS011;59075;50.670;6.474;2022-11-11T19:26:57;732.70;;;677.23;;
15788;SDS011;59075;50.670;6.474;2022-11-11T19:29:24;736.53;;;681.30;;
15788;SDS011;59075;50.670;6.474;2022-11-11T19:31:52;729.90;;;674.60;;
15788;SDS011;59075;50.670;6.474;2022-11-11T19:34:18;745.17;;;689.40;;
15788;SDS011;59075;50.670;6.474;2022-11-11T19:36:45;742.10;;;686.40;;
15788;SDS011;59075;50.670;6.474;2022-11-11T19:39:13;744.97;;;689.13;;
15788;SDS011;59075;50.670;6.474;2022-11-11T19:41:40;748.97;;;693.00;;
15788;SDS011;59075;50.670;6.474;2022-11-11T19:44:09;750.77;;;694.93;;
15788;SDS011;59075;50.670;6.474;2022-11-11T19:46:36;732.97;;;677.63;;
15788;SDS011;59075;50.670;6.474;2022-11-11T19:49:03;738.40;;;683.07;;
15788;SDS011;59075;50.670;6.474;2022-11-11T19:51:29;749.63;;;693.87;;
15788;SDS011;59075;50.670;6.474;2022-11-11T19:53:59;756.83;;;700.67;;
15788;SDS011;59075;50.670;6.474;2022-11-11T19:56:29;755.70;;;699.87;;
15788;SDS011;59075;50.670;6.474;2022-11-11T19:58:56;757.70;;;701.83;;
15788;SDS011;59075;50.670;6.474;2022-11-11T20:01:24;752.93;;;697.00;;
15788;SDS011;59075;50.670;6.474;2022-11-11T20:03:51;749.93;;;694.23;;
15788;SDS011;59075;50.670;6.474;2022-11-11T20:06:20;752.87;;;696.87;;
15788;SDS011;59075;50.670;6.474;2022-11-11T20:08:48;758.23;;;702.17;;
15788;SDS011;59075;50.670;6.474;2022-11-11T20:11:16;749.43;;;693.33;;
15788;SDS011;59075;50.670;6.474;2022-11-11T20:13:44;756.37;;;700.43;;
15788;SDS011;59075;50.670;6.474;2022-11-11T20:16:11;751.90;;;696.10;;
15788;SDS011;59075;50.670;6.474;2022-11-11T20:18:37;756.17;;;700.27;;
15788;SDS011;59075;50.670;6.474;2022-11-11T20:21:05;743.17;;;687.67;;
15788;SDS011;59075;50.670;6.474;2022-11-11T20:23:33;751.57;;;695.67;;
15788;SDS011;59075;50.670;6.474;2022-11-11T20:26:02;746.37;;;690.67;;
15788;SDS011;59075;50.670;6.474;2022-11-11T20:28:30;749.43;;;693.57;;
15788;SDS011;59075;50.670;6.474;2022-11-11T20:30:58;747.57;;;691.70;;
15788;SDS011;59075;50.670;6.474;2022-11-11T20:33:30;756.93;;;700.93;;
15788;SDS011;59075;50.670;6.474;2022-11-11T20:35:59;744.80;;;689.40;;
15788;SDS011;59075;50.670;6.474;2022-11-11T20:38:27;744.93;;;689.33;;